Fesco Vladimir — 5BSL2 — position and weather

sailwx.info

Track history (hours):
 
Tides and Currents Weather Stations Pressure Air Temp Water Temp Dewpoint Dewpoint Depression Visibility Wind Speed Wind Dir Waves Ship Positions

Fesco Vladimir

Last reported at 2015-May-25 17:15 UTC. Time now 2015-May-29 22:27 UTC.
Position N 49°30' W 014°30'.

Length 184 m; draft 10.1 m.

Type: Cargo ship. MMSI: 209777000.

Date/timePositionNaut miles runAvg speedWind from/ knotsBaromVisibWave heightAir tempDewpointWater temp
2015-May-25 17:15N 49°30' W 014°30'1216.9
2015-May-25 16:33N 49°32' W 014°12'42815.9
2015-May-24 13:33N 49°58' W 003°10'1614.7
2015-May-24 12:28N 50°01' W 002°46'2714.0
2015-May-24 10:33N 50°07' W 002°05'1313.4
2015-May-24 09:33N 50°06' W 001°45'1715.8
2015-May-24 08:30N 49°57' W 001°22'1617.1
2015-May-24 07:33N 49°49' W 001°00'1717.5
2015-May-24 06:33N 49°41' W 000°36'1717.3
2015-May-24 05:33N 49°33' W 000°13'1414.1
2015-May-24 04:33N 49°28' E 000°07'2 1.5
2015-May-24 03:33N 49°27' E 000°10'0 0.0
2015-May-24 02:33N 49°27' E 000°10'0 0.0
2015-May-24 01:33N 49°27' E 000°10'0 0.0
2015-May-24 00:33N 49°27' E 000°10'0 0.0
2015-May-23 23:33N 49°27' E 000°10'0 0.0
2015-May-23 22:33N 49°27' E 000°10'0 0.0
2015-May-23 21:33N 49°27' E 000°10'0 0.0
2015-May-23 20:33N 49°27' E 000°10'0 0.0
2015-May-23 19:33N 49°27' E 000°10'4 3.9
2015-May-23 18:34N 49°29' E 000°04'8 7.8
2015-May-23 17:33N 49°34' W 000°05'9 9.3
2015-May-23 16:33N 49°43' W 000°02'1211.8
2015-May-23 15:33N 49°55' W 000°01'3314.7
2015-May-23 13:17N 50°28' W 000°02'1314.8
2015-May-23 12:26N 50°32' E 000°17'1314.8
2015-May-23 11:33N 50°37' E 000°36'1716.5
2015-May-23 10:33N 50°47' E 000°57'1818.2
2015-May-23 09:33N 50°59' E 001°18'1918.6
2015-May-23 08:34N 51°11' E 001°41'1716.6
2015-May-23 07:33N 51°24' E 001°57'1615.6
2015-May-23 06:33N 51°36' E 002°13'1714.8
2015-May-23 05:27N 51°49' E 002°30'6615.9
2015-May-23 01:16N 52°42' E 003°36'1217.1
2015-May-23 00:33N 52°51' E 003°49'1716.7
2015-May-22 23:33N 53°02' E 004°10'1615.6
2015-May-22 22:33N 53°14' E 004°27'1515.3
2015-May-22 21:33N 53°28' E 004°35'1413.8
2015-May-22 20:33N 53°33' E 004°57'1414.4
2015-May-22 19:33N 53°38' E 005°20'1615.5
2015-May-22 18:33N 53°43' E 005°45'1616.0
2015-May-22 17:33N 53°48' E 006°11'1716.7
2015-May-22 16:32N 53°53' E 006°38'1616.4
2015-May-22 15:33N 53°56' E 007°05'1615.6
2015-May-22 14:33N 54°00' E 007°31'1313.2
2015-May-22 13:34N 53°53' E 007°50'1211.7
2015-May-22 12:33N 53°48' E 008°08'1212.3
2015-May-22 11:33N 53°40' E 008°23'7 6.8
2015-May-22 10:33N 53°35' E 008°32'0 0.0
2015-May-22 09:33N 53°35' E 008°32'0 0.0
2015-May-22 08:33N 53°35' E 008°32'0 0.0
2015-May-22 07:33N 53°35' E 008°32'0 0.0
2015-May-22 06:33N 53°35' E 008°32'0 0.0
2015-May-22 05:33N 53°35' E 008°32'0 0.0
2015-May-22 04:33N 53°35' E 008°32'0 0.0
2015-May-22 03:30N 53°35' E 008°32'0 0.0
2015-May-22 02:33N 53°35' E 008°32'0 0.0
2015-May-22 01:33N 53°35' E 008°32'0 0.0
2015-May-22 00:33N 53°35' E 008°32'0 0.0
2015-May-21 23:33N 53°35' E 008°32'0 0.0
2015-May-21 22:33N 53°35' E 008°32'0 0.0
2015-May-21 21:33N 53°35' E 008°32'0 0.0
2015-May-21 20:33N 53°35' E 008°32'0 0.0
2015-May-21 19:33N 53°35' E 008°32'0 0.0
2015-May-21 18:33N 53°35' E 008°32'3 2.7
2015-May-21 17:33N 53°37' E 008°28'1312.8
2015-May-21 16:33N 53°45' E 008°12'1212.3
2015-May-21 15:33N 53°52' E 007°54'3 2.8
2015-May-21 14:29N 53°54' E 007°50'0 0.0
2015-May-21 13:23N 53°54' E 007°50'3 3.6
2015-May-21 12:33N 53°54' E 007°45'1010.0
2015-May-21 11:32N 53°53' E 007°28'1414.2
2015-May-21 10:33N 53°50' E 007°05'1916.5
2015-May-21 09:24N 53°46' E 006°33'1316.0
2015-May-21 08:33N 53°43' E 006°11'1616.0
2015-May-21 07:33N 53°37' E 005°46'1616.2
2015-May-21 06:34N 53°32' E 005°20'1717.4
2015-May-21 05:34N 53°26' E 004°53'1716.6
2015-May-21 04:33N 53°14' E 004°34'1717.2
2015-May-21 03:34N 52°59' E 004°20'1616.4
2015-May-21 02:33N 52°44' E 004°07'1616.1
2015-May-21 01:34N 52°30' E 003°55'1615.7
2015-May-21 00:33N 52°14' E 003°53'1212.4
2015-May-20 23:34N 52°02' E 003°55'1313.3
2015-May-20 22:33N 51°55' E 004°14'7 6.7
2015-May-20 21:33N 51°53' E 004°24'0 0.0
2015-May-20 20:32N 51°53' E 004°24'0 0.0
2015-May-20 19:32N 51°53' E 004°24'0 0.0
2015-May-20 18:29N 51°53' E 004°24'0 0.0
2015-May-20 17:32N 51°53' E 004°24'0 0.0
2015-May-20 16:32N 51°53' E 004°24'0 0.0
2015-May-20 15:32N 51°53' E 004°24'0 0.0
2015-May-20 14:32N 51°53' E 004°24'0 0.0
2015-May-20 13:32N 51°53' E 004°24'0 0.0
2015-May-20 12:32N 51°53' E 004°24'0 0.0
2015-May-20 11:32N 51°53' E 004°24'0 0.0
2015-May-20 10:32N 51°53' E 004°24'0 0.0
2015-May-20 09:32N 51°53' E 004°24'0 0.0
2015-May-20 08:32N 51°53' E 004°24'0 0.0
2015-May-20 07:32N 51°53' E 004°24'0 0.0
2015-May-20 06:32N 51°53' E 004°24'0 0.0
2015-May-20 05:32N 51°53' E 004°24'0 0.0
2015-May-20 04:32N 51°53' E 004°24'0 0.0
2015-May-20 03:32N 51°53' E 004°24'0 0.0
2015-May-20 02:32N 51°53' E 004°24'1 0.7
2015-May-20 01:33N 51°53' E 004°24'8 8.0
2015-May-20 00:33N 51°56' E 004°12'1111.4
2015-May-19 23:34N 51°60' E 003°54'7 6.6
2015-May-19 22:34N 51°57' E 003°45'0 0.3
2015-May-19 21:31N 51°56' E 003°45'0 0.2
2015-May-19 20:31N 51°56' E 003°45'0 0.1
2015-May-19 19:25N 51°57' E 003°45'0 0.0
2015-May-19 18:31N 51°57' E 003°45'0 0.0
2015-May-19 17:31N 51°57' E 003°45'0 0.1
2015-May-19 16:31N 51°57' E 003°45'0 0.0
2015-May-19 15:31N 51°57' E 003°45'0 0.0
2015-May-19 14:22N 51°57' E 003°45'0 0.0
2015-May-19 13:31N 51°57' E 003°45'0 0.0
2015-May-19 12:31N 51°57' E 003°45'0 0.0
2015-May-19 11:31N 51°57' E 003°45'0 0.2
2015-May-19 10:31N 51°56' E 003°45'0 0.0
2015-May-19 09:22N 51°56' E 003°45'0 0.2
2015-May-19 08:31N 51°56' E 003°45'0 0.1
2015-May-19 07:31N 51°57' E 003°45'0 0.0
2015-May-19 06:22N 51°57' E 003°45'0 0.1
2015-May-19 05:31N 51°57' E 003°45'0 0.0
2015-May-19 04:04N 51°57' E 003°45'0 0.3
2015-May-19 03:33N 51°57' E 003°45'1111.4
2015-May-19 02:33N 51°52' E 003°28'1514.9
2015-May-19 01:32N 51°40' E 003°12'1717.3
2015-May-19 00:33N 51°25' E 003°01'1313.3
2015-May-18 23:33N 51°25' E 003°22'1111.0
2015-May-18 22:34N 51°26' E 003°39'1110.8
2015-May-18 21:33N 51°22' E 003°55'9 9.3
2015-May-18 20:34N 51°23' E 004°10'7 6.4
2015-May-18 19:28N 51°17' E 004°16'0 0.0
2015-May-18 18:25N 51°17' E 004°16'0 0.0
2015-May-18 17:31N 51°17' E 004°16'0 0.0
2015-May-18 16:32N 51°17' E 004°16'0 0.0
2015-May-18 15:32N 51°17' E 004°16'0 0.0
2015-May-18 14:32N 51°17' E 004°16'0 0.0
2015-May-18 13:29N 51°17' E 004°16'0 0.0
2015-May-18 12:32N 51°17' E 004°16'0 0.0
2015-May-18 11:32N 51°17' E 004°16'0 0.0
2015-May-18 10:32N 51°17' E 004°16'0 0.0
2015-May-18 09:32N 51°17' E 004°16'0 0.0
2015-May-18 08:32N 51°17' E 004°16'0 0.0
2015-May-18 07:32N 51°17' E 004°16'0 0.1
2015-May-18 06:33N 51°18' E 004°16'7 6.6
2015-May-18 05:33N 51°23' E 004°10'8 8.4
2015-May-18 04:33N 51°23' E 003°56'1010.0
2015-May-18 03:33N 51°26' E 003°41'1010.4
2015-May-18 02:33N 51°25' E 003°24'1413.5
2015-May-18 01:33N 51°25' E 003°03'1313.0
2015-May-18 00:33N 51°22' E 002°42'6 5.7
2015-May-17 23:33N 51°24' E 002°34'0 0.0
2015-May-17 22:33N 51°24' E 002°34'0 0.2
2015-May-17 21:33N 51°24' E 002°34'0 0.0
2015-May-17 20:33N 51°24' E 002°34'0 0.0
2015-May-17 19:33N 51°24' E 002°33'0 0.0
2015-May-17 18:33N 51°24' E 002°33'0 0.2
2015-May-17 17:33N 51°24' E 002°34'0 0.1
2015-May-17 16:33N 51°24' E 002°34'0 0.0
2015-May-17 15:33N 51°24' E 002°34'0 0.0
2015-May-17 14:33N 51°24' E 002°34'0 0.0
2015-May-17 13:33N 51°24' E 002°34'0 0.0
2015-May-17 12:33N 51°24' E 002°34'0 0.0
2015-May-17 11:33N 51°24' E 002°34'0 0.0
2015-May-17 10:33N 51°24' E 002°34'0 0.2
2015-May-17 09:33N 51°24' E 002°34'0 0.0
2015-May-17 07:31N 51°24' E 002°34'5 5.7
2015-May-17 06:33N 51°21' E 002°26'1211.7
2015-May-17 05:34N 51°15' E 002°10'1212.1
2015-May-17 04:33N 51°09' E 001°54'1211.8
2015-May-17 03:34N 51°01' E 001°39'1211.6
2015-May-17 02:33N 50°52' E 001°28'1312.0
2015-May-17 01:29N 50°41' E 001°19'1212.1
2015-May-17 00:31N 50°33' E 001°05'1211.9
2015-May-16 23:29N 50°28' E 000°47'1312.4
2015-May-16 22:27N 50°24' E 000°28'4214.0
2015-May-16 19:27N 50°12' W 000°35'3518.4
2015-May-16 17:33N 50°03' W 001°27'2018.0
2015-May-16 16:28N 49°58' W 001°57'18013.9
2015-May-16 03:33N 48°29' W 005°56'  
Track history (hours):
 
Tides and Currents Weather Stations Pressure Air Temp Water Temp Dewpoint Dewpoint Depression Visibility Wind Speed Wind Dir Waves Ship Positions

Fesco Vladimir

Last reported at 2015-May-25 17:15 UTC. Time now 2015-May-29 22:27 UTC.
Position N 49°30' W 014°30'.

Length 184 m; draft 10.1 m.

Type: Cargo ship. MMSI: 209777000.

Date/timePositionNaut miles runAvg speedWind from/ knotsBaromVisibWave heightAir tempDewpointWater temp
2015-May-25 17:15N 49°30' W 014°30'1216.9
2015-May-25 16:33N 49°32' W 014°12'42815.9
2015-May-24 13:33N 49°58' W 003°10'1614.7
2015-May-24 12:28N 50°01' W 002°46'2714.0
2015-May-24 10:33N 50°07' W 002°05'1313.4
2015-May-24 09:33N 50°06' W 001°45'1715.8
2015-May-24 08:30N 49°57' W 001°22'1617.1
2015-May-24 07:33N 49°49' W 001°00'1717.5
2015-May-24 06:33N 49°41' W 000°36'1717.3
2015-May-24 05:33N 49°33' W 000°13'1414.1
2015-May-24 04:33N 49°28' E 000°07'2 1.5
2015-May-24 03:33N 49°27' E 000°10'0 0.0
2015-May-24 02:33N 49°27' E 000°10'0 0.0
2015-May-24 01:33N 49°27' E 000°10'0 0.0
2015-May-24 00:33N 49°27' E 000°10'0 0.0
2015-May-23 23:33N 49°27' E 000°10'0 0.0
2015-May-23 22:33N 49°27' E 000°10'0 0.0
2015-May-23 21:33N 49°27' E 000°10'0 0.0
2015-May-23 20:33N 49°27' E 000°10'0 0.0
2015-May-23 19:33N 49°27' E 000°10'4 3.9
2015-May-23 18:34N 49°29' E 000°04'8 7.8
2015-May-23 17:33N 49°34' W 000°05'9 9.3
2015-May-23 16:33N 49°43' W 000°02'1211.8
2015-May-23 15:33N 49°55' W 000°01'3314.7
2015-May-23 13:17N 50°28' W 000°02'1314.8
2015-May-23 12:26N 50°32' E 000°17'1314.8
2015-May-23 11:33N 50°37' E 000°36'1716.5
2015-May-23 10:33N 50°47' E 000°57'1818.2
2015-May-23 09:33N 50°59' E 001°18'1918.6
2015-May-23 08:34N 51°11' E 001°41'1716.6
2015-May-23 07:33N 51°24' E 001°57'1615.6
2015-May-23 06:33N 51°36' E 002°13'1714.8
2015-May-23 05:27N 51°49' E 002°30'6615.9
2015-May-23 01:16N 52°42' E 003°36'1217.1
2015-May-23 00:33N 52°51' E 003°49'1716.7
2015-May-22 23:33N 53°02' E 004°10'1615.6
2015-May-22 22:33N 53°14' E 004°27'1515.3
2015-May-22 21:33N 53°28' E 004°35'1413.8
2015-May-22 20:33N 53°33' E 004°57'1414.4
2015-May-22 19:33N 53°38' E 005°20'1615.5
2015-May-22 18:33N 53°43' E 005°45'1616.0
2015-May-22 17:33N 53°48' E 006°11'1716.7
2015-May-22 16:32N 53°53' E 006°38'1616.4
2015-May-22 15:33N 53°56' E 007°05'1615.6
2015-May-22 14:33N 54°00' E 007°31'1313.2
2015-May-22 13:34N 53°53' E 007°50'1211.7
2015-May-22 12:33N 53°48' E 008°08'1212.3
2015-May-22 11:33N 53°40' E 008°23'7 6.8
2015-May-22 10:33N 53°35' E 008°32'0 0.0
2015-May-22 09:33N 53°35' E 008°32'0 0.0
2015-May-22 08:33N 53°35' E 008°32'0 0.0
2015-May-22 07:33N 53°35' E 008°32'0 0.0
2015-May-22 06:33N 53°35' E 008°32'0 0.0
2015-May-22 05:33N 53°35' E 008°32'0 0.0
2015-May-22 04:33N 53°35' E 008°32'0 0.0
2015-May-22 03:30N 53°35' E 008°32'0 0.0
2015-May-22 02:33N 53°35' E 008°32'0 0.0
2015-May-22 01:33N 53°35' E 008°32'0 0.0
2015-May-22 00:33N 53°35' E 008°32'0 0.0
2015-May-21 23:33N 53°35' E 008°32'0 0.0
2015-May-21 22:33N 53°35' E 008°32'0 0.0
2015-May-21 21:33N 53°35' E 008°32'0 0.0
2015-May-21 20:33N 53°35' E 008°32'0 0.0
2015-May-21 19:33N 53°35' E 008°32'0 0.0
2015-May-21 18:33N 53°35' E 008°32'3 2.7
2015-May-21 17:33N 53°37' E 008°28'1312.8
2015-May-21 16:33N 53°45' E 008°12'1212.3
2015-May-21 15:33N 53°52' E 007°54'3 2.8
2015-May-21 14:29N 53°54' E 007°50'0 0.0
2015-May-21 13:23N 53°54' E 007°50'3 3.6
2015-May-21 12:33N 53°54' E 007°45'1010.0
2015-May-21 11:32N 53°53' E 007°28'1414.2
2015-May-21 10:33N 53°50' E 007°05'1916.5
2015-May-21 09:24N 53°46' E 006°33'1316.0
2015-May-21 08:33N 53°43' E 006°11'1616.0
2015-May-21 07:33N 53°37' E 005°46'1616.2
2015-May-21 06:34N 53°32' E 005°20'1717.4
2015-May-21 05:34N 53°26' E 004°53'1716.6
2015-May-21 04:33N 53°14' E 004°34'1717.2
2015-May-21 03:34N 52°59' E 004°20'1616.4
2015-May-21 02:33N 52°44' E 004°07'1616.1
2015-May-21 01:34N 52°30' E 003°55'1615.7
2015-May-21 00:33N 52°14' E 003°53'1212.4
2015-May-20 23:34N 52°02' E 003°55'1313.3
2015-May-20 22:33N 51°55' E 004°14'7 6.7
2015-May-20 21:33N 51°53' E 004°24'0 0.0
2015-May-20 20:32N 51°53' E 004°24'0 0.0
2015-May-20 19:32N 51°53' E 004°24'0 0.0
2015-May-20 18:29N 51°53' E 004°24'0 0.0
2015-May-20 17:32N 51°53' E 004°24'0 0.0
2015-May-20 16:32N 51°53' E 004°24'0 0.0
2015-May-20 15:32N 51°53' E 004°24'0 0.0
2015-May-20 14:32N 51°53' E 004°24'0 0.0
2015-May-20 13:32N 51°53' E 004°24'0 0.0
2015-May-20 12:32N 51°53' E 004°24'0 0.0
2015-May-20 11:32N 51°53' E 004°24'0 0.0
2015-May-20 10:32N 51°53' E 004°24'0 0.0
2015-May-20 09:32N 51°53' E 004°24'0 0.0
2015-May-20 08:32N 51°53' E 004°24'0 0.0
2015-May-20 07:32N 51°53' E 004°24'0 0.0
2015-May-20 06:32N 51°53' E 004°24'0 0.0
2015-May-20 05:32N 51°53' E 004°24'0 0.0
2015-May-20 04:32N 51°53' E 004°24'0 0.0
2015-May-20 03:32N 51°53' E 004°24'0 0.0
2015-May-20 02:32N 51°53' E 004°24'1 0.7
2015-May-20 01:33N 51°53' E 004°24'8 8.0
2015-May-20 00:33N 51°56' E 004°12'1111.4
2015-May-19 23:34N 51°60' E 003°54'7 6.6
2015-May-19 22:34N 51°57' E 003°45'0 0.3
2015-May-19 21:31N 51°56' E 003°45'0 0.2
2015-May-19 20:31N 51°56' E 003°45'0 0.1
2015-May-19 19:25N 51°57' E 003°45'0 0.0
2015-May-19 18:31N 51°57' E 003°45'0 0.0
2015-May-19 17:31N 51°57' E 003°45'0 0.1
2015-May-19 16:31N 51°57' E 003°45'0 0.0
2015-May-19 15:31N 51°57' E 003°45'0 0.0
2015-May-19 14:22N 51°57' E 003°45'0 0.0
2015-May-19 13:31N 51°57' E 003°45'0 0.0
2015-May-19 12:31N 51°57' E 003°45'0 0.0
2015-May-19 11:31N 51°57' E 003°45'0 0.2
2015-May-19 10:31N 51°56' E 003°45'0 0.0
2015-May-19 09:22N 51°56' E 003°45'0 0.2
2015-May-19 08:31N 51°56' E 003°45'0 0.1
2015-May-19 07:31N 51°57' E 003°45'0 0.0
2015-May-19 06:22N 51°57' E 003°45'0 0.1
2015-May-19 05:31N 51°57' E 003°45'0 0.0
2015-May-19 04:04N 51°57' E 003°45'0 0.3
2015-May-19 03:33N 51°57' E 003°45'1111.4
2015-May-19 02:33N 51°52' E 003°28'1514.9
2015-May-19 01:32N 51°40' E 003°12'1717.3
2015-May-19 00:33N 51°25' E 003°01'1313.3
2015-May-18 23:33N 51°25' E 003°22'1111.0
2015-May-18 22:34N 51°26' E 003°39'1110.8
2015-May-18 21:33N 51°22' E 003°55'9 9.3
2015-May-18 20:34N 51°23' E 004°10'7 6.4
2015-May-18 19:28N 51°17' E 004°16'0 0.0
2015-May-18 18:25N 51°17' E 004°16'0 0.0
2015-May-18 17:31N 51°17' E 004°16'0 0.0
2015-May-18 16:32N 51°17' E 004°16'0 0.0
2015-May-18 15:32N 51°17' E 004°16'0 0.0
2015-May-18 14:32N 51°17' E 004°16'0 0.0
2015-May-18 13:29N 51°17' E 004°16'0 0.0
2015-May-18 12:32N 51°17' E 004°16'0 0.0
2015-May-18 11:32N 51°17' E 004°16'0 0.0
2015-May-18 10:32N 51°17' E 004°16'0 0.0
2015-May-18 09:32N 51°17' E 004°16'0 0.0
2015-May-18 08:32N 51°17' E 004°16'0 0.0
2015-May-18 07:32N 51°17' E 004°16'0 0.1
2015-May-18 06:33N 51°18' E 004°16'7 6.6
2015-May-18 05:33N 51°23' E 004°10'8 8.4
2015-May-18 04:33N 51°23' E 003°56'1010.0
2015-May-18 03:33N 51°26' E 003°41'1010.4
2015-May-18 02:33N 51°25' E 003°24'1413.5
2015-May-18 01:33N 51°25' E 003°03'1313.0
2015-May-18 00:33N 51°22' E 002°42'6 5.7
2015-May-17 23:33N 51°24' E 002°34'0 0.0
2015-May-17 22:33N 51°24' E 002°34'0 0.2
2015-May-17 21:33N 51°24' E 002°34'0 0.0
2015-May-17 20:33N 51°24' E 002°34'0 0.0
2015-May-17 19:33N 51°24' E 002°33'0 0.0
2015-May-17 18:33N 51°24' E 002°33'0 0.2
2015-May-17 17:33N 51°24' E 002°34'0 0.1
2015-May-17 16:33N 51°24' E 002°34'0 0.0
2015-May-17 15:33N 51°24' E 002°34'0 0.0
2015-May-17 14:33N 51°24' E 002°34'0 0.0
2015-May-17 13:33N 51°24' E 002°34'0 0.0
2015-May-17 12:33N 51°24' E 002°34'0 0.0
2015-May-17 11:33N 51°24' E 002°34'0 0.0
2015-May-17 10:33N 51°24' E 002°34'0 0.2
2015-May-17 09:33N 51°24' E 002°34'0 0.0
2015-May-17 07:31N 51°24' E 002°34'5 5.7
2015-May-17 06:33N 51°21' E 002°26'1211.7
2015-May-17 05:34N 51°15' E 002°10'1212.1
2015-May-17 04:33N 51°09' E 001°54'1211.8
2015-May-17 03:34N 51°01' E 001°39'1211.6
2015-May-17 02:33N 50°52' E 001°28'1312.0
2015-May-17 01:29N 50°41' E 001°19'1212.1
2015-May-17 00:31N 50°33' E 001°05'1211.9
2015-May-16 23:29N 50°28' E 000°47'1312.4
2015-May-16 22:27N 50°24' E 000°28'4214.0
2015-May-16 19:27N 50°12' W 000°35'3518.4
2015-May-16 17:33N 50°03' W 001°27'2018.0
2015-May-16 16:28N 49°58' W 001°57'18013.9
2015-May-16 03:33N 48°29' W 005°56'  

Dump ship's entire track history